createdAt,value
2018-06-05T00:01:16.737Z,18.20
2018-06-05T00:03:44.227Z,18.20
2018-06-05T00:06:11.725Z,18.20
2018-06-05T00:08:39.212Z,18.20
2018-06-05T00:11:06.765Z,18.20
2018-06-05T00:13:34.276Z,18.30
2018-06-05T00:16:01.821Z,18.20
2018-06-05T00:18:29.317Z,18.20
2018-06-05T00:20:56.836Z,18.20
2018-06-05T00:23:24.339Z,18.20
2018-06-05T00:25:51.864Z,18.10
2018-06-05T00:28:19.355Z,18.10
2018-06-05T00:30:46.862Z,18.00
2018-06-05T00:33:14.370Z,18.00
2018-06-05T00:38:09.304Z,18.10
2018-06-05T00:40:36.864Z,18.20
2018-06-05T00:43:04.449Z,18.20
2018-06-05T00:45:31.947Z,18.30
2018-06-05T00:50:27.808Z,18.30
2018-06-05T00:52:55.341Z,18.20
2018-06-05T00:55:22.861Z,18.30
2018-06-05T00:57:50.372Z,18.30
2018-06-05T01:00:18.382Z,18.30
2018-06-05T01:02:45.924Z,18.20
2018-06-05T01:05:13.425Z,18.30
2018-06-05T01:07:40.965Z,18.40
2018-06-05T01:10:08.464Z,18.50
2018-06-05T01:12:35.989Z,18.50
2018-06-05T01:15:03.625Z,18.50
2018-06-05T01:17:31.141Z,18.40
2018-06-05T01:19:58.646Z,18.50
2018-06-05T01:22:26.746Z,18.50
2018-06-05T01:24:54.232Z,18.50
2018-06-05T01:27:21.745Z,18.40
2018-06-05T01:29:49.252Z,18.40
2018-06-05T01:32:16.756Z,18.30
2018-06-05T01:34:44.258Z,18.20
2018-06-05T01:37:11.801Z,18.20
2018-06-05T01:39:39.325Z,18.20
2018-06-05T01:42:06.915Z,18.00
2018-06-05T01:44:34.459Z,18.00
2018-06-05T01:47:01.981Z,18.00
2018-06-05T01:49:35.141Z,17.90
2018-06-05T01:52:02.999Z,17.80
2018-06-05T01:54:30.497Z,17.90
2018-06-05T01:56:58.007Z,17.90
2018-06-05T01:59:25.537Z,18.00
2018-06-05T02:01:53.037Z,18.10
2018-06-05T02:04:20.549Z,18.20
2018-06-05T02:06:48.056Z,18.20
2018-06-05T02:09:15.564Z,18.20
2018-06-05T02:11:43.060Z,18.40
2018-06-05T02:14:10.667Z,18.50
2018-06-05T02:16:38.167Z,18.50
2018-06-05T02:19:05.926Z,18.40
2018-06-05T02:21:33.412Z,18.20
2018-06-05T02:24:00.928Z,18.10
2018-06-05T02:26:28.408Z,18.10
2018-06-05T02:28:55.925Z,17.90
2018-06-05T02:31:23.443Z,17.90
2018-06-05T02:33:50.982Z,18.00
2018-06-05T02:36:18.487Z,17.90
2018-06-05T02:38:46.037Z,18.00
2018-06-05T02:41:13.917Z,18.00
2018-06-05T02:43:41.428Z,18.10
2018-06-05T02:48:36.349Z,17.90
2018-06-05T02:51:04.317Z,17.90
2018-06-05T02:53:31.855Z,17.90
2018-06-05T02:55:59.368Z,17.80
2018-06-05T02:58:26.897Z,17.80
2018-06-05T03:03:21.848Z,17.70
2018-06-05T03:05:49.993Z,17.70
2018-06-05T03:08:17.579Z,17.60
2018-06-05T03:10:45.086Z,17.50
2018-06-05T03:13:12.626Z,17.50
2018-06-05T03:15:40.143Z,17.40
2018-06-05T03:18:07.632Z,17.40
2018-06-05T03:20:35.151Z,17.30
2018-06-05T03:23:02.652Z,17.30
2018-06-05T03:25:30.212Z,17.40
2018-06-05T03:27:57.697Z,17.40
2018-06-05T03:30:25.228Z,17.40
2018-06-05T03:32:52.716Z,17.30
2018-06-05T03:35:20.256Z,17.30
2018-06-05T03:37:47.768Z,17.10
2018-06-05T03:40:15.293Z,17.00
2018-06-05T03:42:42.783Z,16.90
2018-06-05T03:45:10.288Z,16.90
2018-06-05T03:47:37.821Z,16.90
2018-06-05T03:50:05.401Z,16.90
2018-06-05T03:52:32.939Z,17.00
2018-06-05T03:55:00.465Z,17.00
2018-06-05T03:57:28.017Z,17.00
2018-06-05T03:59:55.556Z,17.10
2018-06-05T04:02:23.051Z,17.10
2018-06-05T04:04:50.572Z,17.10
2018-06-05T04:07:18.112Z,17.10
2018-06-05T04:09:45.648Z,17.10
2018-06-05T04:12:13.161Z,17.10
2018-06-05T04:14:40.705Z,17.00
2018-06-05T04:17:08.219Z,17.10
2018-06-05T04:19:35.757Z,17.00
2018-06-05T04:22:03.273Z,16.90
2018-06-05T04:24:30.812Z,17.00
2018-06-05T04:26:58.322Z,17.00
2018-06-05T04:29:25.844Z,17.00
2018-06-05T04:31:53.951Z,17.00
2018-06-05T04:34:21.500Z,17.00
2018-06-05T04:36:49.068Z,16.90
2018-06-05T04:39:16.617Z,16.90
2018-06-05T04:41:44.121Z,17.00
2018-06-05T04:44:11.656Z,17.00
2018-06-05T04:46:39.163Z,17.10
2018-06-05T04:49:06.700Z,17.10
2018-06-05T04:51:34.204Z,17.00
2018-06-05T04:54:01.747Z,17.00
2018-06-05T04:56:29.273Z,16.90
2018-06-05T04:58:56.789Z,17.00
2018-06-05T05:01:24.314Z,16.90
2018-06-05T05:03:51.882Z,16.90
2018-06-05T05:06:20.048Z,16.90
2018-06-05T05:08:47.545Z,16.90
2018-06-05T05:11:15.138Z,16.90
2018-06-05T05:13:42.704Z,16.80
2018-06-05T05:16:10.220Z,16.70
2018-06-05T05:18:37.716Z,16.80
2018-06-05T05:21:05.258Z,16.70
2018-06-05T05:23:32.772Z,16.60
2018-06-05T05:26:00.296Z,16.70
2018-06-05T05:28:27.804Z,16.70
2018-06-05T05:30:55.403Z,16.70
2018-06-05T05:33:22.920Z,16.80
2018-06-05T05:35:50.473Z,16.90
2018-06-05T05:38:18.048Z,16.90
2018-06-05T05:40:45.579Z,17.00
2018-06-05T05:43:13.885Z,17.00
2018-06-05T05:45:41.415Z,17.00
2018-06-05T05:48:08.934Z,16.90
2018-06-05T05:50:36.535Z,17.10
2018-06-05T05:53:04.119Z,17.20
2018-06-05T05:55:31.647Z,17.20
2018-06-05T05:57:59.177Z,17.20
2018-06-05T06:00:26.741Z,17.40
2018-06-05T06:02:54.232Z,17.30
2018-06-05T06:05:21.782Z,17.20
2018-06-05T06:07:49.305Z,17.10
2018-06-05T06:10:16.849Z,17.10
2018-06-05T06:12:44.352Z,17.20
2018-06-05T06:15:11.973Z,17.20
2018-06-05T06:17:39.493Z,17.20
2018-06-05T06:20:07.009Z,17.20
2018-06-05T06:22:34.501Z,17.00
2018-06-05T06:25:02.070Z,17.00
2018-06-05T06:27:29.567Z,17.00
2018-06-05T06:29:57.161Z,17.00
2018-06-05T06:32:24.739Z,17.10
2018-06-05T06:34:52.248Z,17.10
2018-06-05T06:37:19.787Z,17.20
2018-06-05T06:39:47.357Z,17.30
2018-06-05T06:42:14.888Z,17.20
2018-06-05T06:44:42.460Z,17.30
2018-06-05T06:47:09.987Z,17.30
2018-06-05T06:49:37.472Z,17.30
2018-06-05T06:52:05.013Z,17.20
2018-06-05T06:54:32.606Z,17.30
2018-06-05T06:57:00.113Z,17.30
2018-06-05T06:59:27.611Z,17.20
2018-06-05T07:01:55.168Z,17.30
2018-06-05T07:04:22.683Z,17.30
2018-06-05T07:06:50.244Z,17.30
2018-06-05T07:09:17.760Z,17.30
2018-06-05T07:11:45.281Z,17.30
2018-06-05T07:14:12.777Z,17.40
2018-06-05T07:16:40.312Z,17.60
2018-06-05T07:19:07.823Z,17.80
2018-06-05T07:21:35.362Z,18.00
2018-06-05T07:24:02.953Z,18.10
2018-06-05T07:26:30.478Z,18.20
2018-06-05T07:28:58.011Z,18.30
2018-06-05T07:31:25.583Z,18.20
2018-06-05T07:33:53.122Z,18.10
2018-06-05T07:36:20.680Z,18.00
2018-06-05T07:38:48.240Z,17.90
2018-06-05T07:41:15.869Z,17.70
2018-06-05T07:43:43.361Z,17.60
2018-06-05T07:46:10.898Z,17.60
2018-06-05T07:48:38.441Z,17.60
2018-06-05T07:51:05.985Z,17.60
2018-06-05T07:53:33.508Z,17.80
2018-06-05T07:56:01.051Z,17.90
2018-06-05T07:58:28.708Z,17.90
2018-06-05T08:00:56.266Z,17.90
2018-06-05T08:03:23.744Z,18.10
2018-06-05T08:05:51.284Z,18.00
2018-06-05T08:08:18.781Z,18.10
2018-06-05T08:10:46.309Z,18.10
2018-06-05T08:13:13.860Z,18.00
2018-06-05T08:15:41.353Z,18.10
2018-06-05T08:18:08.884Z,18.10
2018-06-05T08:20:37.086Z,18.10
2018-06-05T08:23:04.728Z,18.20
2018-06-05T08:25:32.265Z,18.30
2018-06-05T08:27:59.802Z,18.50
2018-06-05T08:30:27.363Z,18.60
2018-06-05T08:32:54.920Z,18.60
2018-06-05T08:35:22.442Z,18.80
2018-06-05T08:37:50.022Z,19.00
2018-06-05T08:42:45.021Z,19.30
2018-06-05T08:45:12.549Z,19.30
2018-06-05T08:47:40.109Z,19.40
2018-06-05T08:50:07.634Z,19.40
2018-06-05T08:52:35.657Z,19.50
2018-06-05T08:55:03.296Z,19.20
2018-06-05T08:57:30.837Z,19.00
2018-06-05T08:59:58.410Z,18.80
2018-06-05T09:02:26.012Z,18.80
2018-06-05T09:04:53.522Z,18.80
2018-06-05T09:07:21.079Z,18.90
2018-06-05T09:09:48.724Z,19.30
2018-06-05T09:12:16.282Z,19.40
2018-06-05T09:14:43.820Z,19.60
2018-06-05T09:17:11.353Z,19.50
2018-06-05T09:19:38.885Z,19.80
2018-06-05T09:22:06.881Z,20.00
2018-06-05T09:24:34.409Z,19.90
2018-06-05T09:27:01.977Z,19.70
2018-06-05T09:29:29.481Z,19.80
2018-06-05T09:31:57.061Z,19.90
2018-06-05T09:34:24.618Z,19.40
2018-06-05T09:39:19.572Z,19.40
2018-06-05T09:41:47.088Z,19.50
2018-06-05T09:44:14.607Z,19.50
2018-06-05T09:46:42.244Z,19.40
2018-06-05T09:49:09.790Z,19.10
2018-06-05T09:51:37.305Z,18.80
2018-06-05T09:54:04.965Z,18.90
2018-06-05T09:56:32.490Z,19.00
2018-06-05T09:59:00.065Z,19.20
2018-06-05T10:01:27.572Z,19.10
2018-06-05T10:03:55.201Z,19.20
2018-06-05T10:06:22.700Z,19.20
2018-06-05T10:08:50.231Z,19.20
2018-06-05T10:11:17.765Z,19.10
2018-06-05T10:13:45.331Z,19.00
2018-06-05T10:16:12.873Z,18.90
2018-06-05T10:18:40.418Z,19.10
2018-06-05T10:21:07.920Z,19.10
2018-06-05T10:23:35.441Z,18.80
2018-06-05T10:26:03.048Z,18.90
2018-06-05T10:28:30.551Z,18.80
2018-06-05T10:30:58.100Z,18.70
2018-06-05T10:33:25.604Z,19.00
2018-06-05T10:35:53.094Z,19.20
2018-06-05T10:38:20.634Z,19.40
2018-06-05T10:40:48.174Z,19.70
2018-06-05T10:43:15.772Z,19.80
2018-06-05T10:45:43.292Z,19.80
2018-06-05T10:48:10.777Z,19.50
2018-06-05T10:50:38.777Z,19.40
2018-06-05T10:53:06.692Z,19.60
2018-06-05T10:55:34.839Z,19.90
2018-06-05T10:58:02.385Z,20.10
2018-06-05T11:00:30.021Z,20.30
2018-06-05T11:02:57.631Z,19.80
2018-06-05T11:05:25.365Z,19.80
2018-06-05T11:07:52.899Z,20.00
2018-06-05T11:10:20.437Z,20.00
2018-06-05T11:12:48.005Z,20.10
2018-06-05T11:15:15.545Z,20.30
2018-06-05T11:20:10.581Z,20.50
2018-06-05T11:22:38.272Z,20.70
2018-06-05T11:25:05.953Z,20.80
2018-06-05T11:27:33.483Z,20.90
2018-06-05T11:30:01.119Z,21.10
2018-06-05T11:32:28.579Z,20.80
2018-06-05T11:34:56.118Z,20.70
2018-06-05T11:37:24.948Z,20.70
2018-06-05T11:39:52.508Z,20.80
2018-06-05T11:42:20.017Z,20.80
2018-06-05T11:47:15.035Z,20.90
2018-06-05T11:49:42.594Z,20.90
2018-06-05T11:52:10.178Z,20.80
2018-06-05T11:54:37.689Z,20.70
2018-06-05T11:57:05.268Z,20.80
2018-06-05T11:59:32.804Z,20.70
2018-06-05T12:02:00.405Z,20.60
2018-06-05T12:04:27.950Z,20.70
2018-06-05T12:06:55.534Z,20.90
2018-06-05T12:09:23.093Z,20.90
2018-06-05T12:11:50.674Z,21.00
2018-06-05T12:14:18.233Z,21.30
2018-06-05T12:16:45.719Z,21.50
2018-06-05T12:19:13.248Z,21.70
2018-06-05T12:21:40.758Z,21.70
2018-06-05T12:24:08.293Z,21.80
2018-06-05T12:26:35.800Z,21.40
2018-06-05T12:29:03.624Z,21.20
2018-06-05T12:31:31.178Z,21.40
2018-06-05T12:33:58.721Z,21.40
2018-06-05T12:36:26.247Z,21.60
2018-06-05T12:41:28.118Z,22.00
2018-06-05T12:43:55.682Z,22.00
2018-06-05T12:46:23.206Z,21.80
2018-06-05T12:48:50.755Z,21.70
2018-06-05T12:51:18.282Z,21.40
2018-06-05T12:53:46.004Z,21.10
2018-06-05T12:56:13.697Z,21.20
2018-06-05T12:58:41.224Z,21.60
2018-06-05T13:01:08.741Z,21.30
2018-06-05T13:03:36.255Z,21.20
2018-06-05T13:06:03.873Z,21.00
2018-06-05T13:08:31.400Z,20.80
2018-06-05T13:10:58.966Z,21.00
2018-06-05T13:13:26.487Z,21.20
2018-06-05T13:15:54.055Z,21.30
2018-06-05T13:18:21.619Z,21.70
2018-06-05T13:20:49.253Z,22.00
2018-06-05T13:23:16.849Z,22.40
2018-06-05T13:25:44.649Z,22.40
2018-06-05T13:28:12.175Z,22.70
2018-06-05T13:30:40.003Z,22.90
2018-06-05T13:33:07.574Z,23.00
2018-06-05T13:35:35.153Z,22.40
2018-06-05T13:38:03.031Z,22.50
2018-06-05T13:40:30.665Z,22.60
2018-06-05T13:42:58.470Z,22.60
2018-06-05T13:45:26.024Z,22.60
2018-06-05T13:47:53.548Z,22.80
2018-06-05T13:50:21.154Z,22.90
2018-06-05T13:52:48.684Z,23.10
2018-06-05T13:55:16.270Z,23.40
2018-06-05T13:57:43.821Z,23.60
2018-06-05T14:00:11.437Z,24.00
2018-06-05T14:02:40.872Z,24.30
2018-06-05T14:05:08.433Z,24.30
2018-06-05T14:07:35.982Z,23.60
2018-06-05T14:10:06.852Z,22.60
2018-06-05T14:12:34.486Z,22.40
2018-06-05T14:15:02.235Z,22.30
2018-06-05T14:17:29.860Z,22.50
2018-06-05T14:19:59.149Z,22.80
2018-06-05T14:24:54.171Z,23.30
2018-06-05T14:27:21.711Z,23.60
2018-06-05T14:29:49.261Z,23.90
2018-06-05T14:32:16.960Z,24.20
2018-06-05T14:34:44.501Z,24.40
2018-06-05T14:37:12.141Z,24.30
2018-06-05T14:39:39.692Z,24.60
2018-06-05T14:42:07.324Z,24.40
2018-06-05T14:44:34.864Z,24.30
2018-06-05T14:47:02.498Z,24.20
2018-06-05T14:49:30.170Z,23.90
2018-06-05T14:54:25.227Z,24.20
2018-06-05T14:56:52.785Z,24.30
2018-06-05T14:59:20.316Z,24.60
2018-06-05T15:01:47.828Z,24.80
2018-06-05T15:04:15.364Z,24.80
2018-06-05T15:06:42.937Z,25.00
2018-06-05T15:09:10.513Z,24.90
2018-06-05T15:11:38.157Z,24.70
2018-06-05T15:14:05.777Z,24.90
2018-06-05T15:16:33.300Z,24.70
2018-06-05T15:21:28.353Z,24.80
2018-06-05T15:23:56.014Z,25.00
2018-06-05T15:26:23.595Z,25.10
2018-06-05T15:28:51.135Z,25.20
2018-06-05T15:31:18.858Z,25.20
2018-06-05T15:33:46.396Z,25.20
2018-06-05T15:38:41.680Z,26.10
2018-06-05T15:41:09.284Z,27.00
2018-06-05T15:43:36.919Z,27.70
2018-06-05T15:46:04.565Z,28.60
2018-06-05T15:48:32.121Z,29.50
2018-06-05T15:50:59.689Z,30.40
2018-06-05T15:53:27.208Z,31.30
2018-06-05T15:55:55.757Z,32.00
2018-06-05T15:58:23.278Z,32.80
2018-06-05T16:00:50.864Z,33.10
2018-06-05T16:03:18.363Z,32.90
2018-06-05T16:05:45.918Z,33.10
2018-06-05T16:08:13.481Z,33.00
2018-06-05T16:10:41.247Z,33.00
2018-06-05T16:13:08.803Z,33.00
2018-06-05T16:18:04.013Z,32.70
2018-06-05T16:20:31.657Z,33.30
2018-06-05T16:22:59.182Z,33.60
2018-06-05T16:25:26.728Z,33.40
2018-06-05T16:27:54.236Z,33.50
2018-06-05T16:30:21.886Z,33.70
2018-06-05T16:32:49.457Z,33.80
2018-06-05T16:35:16.997Z,33.50
2018-06-05T16:37:44.497Z,34.00
2018-06-05T16:40:12.120Z,33.50
2018-06-05T16:42:39.667Z,33.30
2018-06-05T16:45:07.233Z,33.20
2018-06-05T16:47:34.787Z,33.40
2018-06-05T16:50:02.292Z,33.00
2018-06-05T16:52:29.913Z,33.40
2018-06-05T16:54:57.489Z,33.00
2018-06-05T16:57:25.202Z,32.60
2018-06-05T16:59:52.845Z,32.60
2018-06-05T17:02:20.442Z,32.50
2018-06-05T17:04:48.019Z,32.40
2018-06-05T17:07:15.565Z,32.40
2018-06-05T17:09:43.061Z,32.20
2018-06-05T17:12:10.600Z,31.50
2018-06-05T17:14:38.097Z,31.70
2018-06-05T17:17:05.973Z,32.10
2018-06-05T17:19:33.929Z,32.30
2018-06-05T17:22:01.543Z,32.10
2018-06-05T17:24:29.273Z,31.80
2018-06-05T17:26:57.078Z,31.50
2018-06-05T17:29:24.599Z,31.40
2018-06-05T17:31:52.122Z,31.10
2018-06-05T17:36:47.533Z,31.30
2018-06-05T17:39:15.113Z,31.30
2018-06-05T17:41:42.977Z,31.10
2018-06-05T17:44:10.603Z,31.10
2018-06-05T17:46:38.129Z,31.10
2018-06-05T17:49:05.693Z,31.00
2018-06-05T17:51:33.226Z,30.80
2018-06-05T17:54:00.895Z,31.00
2018-06-05T17:56:28.496Z,30.70
2018-06-05T18:01:23.705Z,31.20
2018-06-05T18:03:51.335Z,30.80
2018-06-05T18:06:18.892Z,30.70
2018-06-05T18:08:46.584Z,30.30
2018-06-05T18:11:14.405Z,29.80
2018-06-05T18:13:41.975Z,29.80
2018-06-05T18:16:09.642Z,30.00
2018-06-05T18:18:37.991Z,30.00
2018-06-05T18:21:06.070Z,29.90
2018-06-05T18:23:33.536Z,30.00
2018-06-05T18:26:01.446Z,30.10
2018-06-05T18:28:29.310Z,29.90
2018-06-05T18:30:57.073Z,29.60
2018-06-05T18:33:25.002Z,29.30
2018-06-05T18:35:52.865Z,29.50
2018-06-05T18:38:20.458Z,29.40
2018-06-05T18:40:49.068Z,29.10
2018-06-05T18:43:16.633Z,29.00
2018-06-05T18:45:44.310Z,28.60
2018-06-05T18:48:12.278Z,28.60
2018-06-05T18:50:40.326Z,28.40
2018-06-05T18:53:07.862Z,28.30
2018-06-05T18:55:35.397Z,28.10
2018-06-05T18:58:02.952Z,27.70
2018-06-05T19:00:30.523Z,27.10
2018-06-05T19:02:58.043Z,26.60
2018-06-05T19:05:25.638Z,26.30
2018-06-05T19:07:53.161Z,25.70
2018-06-05T19:10:21.533Z,25.50
2018-06-05T19:12:49.074Z,25.00
2018-06-05T19:15:16.955Z,24.80
2018-06-05T19:17:45.169Z,24.60
2018-06-05T19:20:12.723Z,24.20
2018-06-05T19:22:41.280Z,23.90
2018-06-05T19:25:09.618Z,23.70
2018-06-05T19:27:37.550Z,23.50
2018-06-05T19:30:05.135Z,23.50
2018-06-05T19:32:33.539Z,23.20
2018-06-05T19:35:01.682Z,23.10
2018-06-05T19:37:30.073Z,23.10
2018-06-05T19:42:26.103Z,22.90
2018-06-05T19:44:53.972Z,22.70
2018-06-05T19:47:21.688Z,22.70
2018-06-05T19:49:49.248Z,22.70
2018-06-05T19:52:17.138Z,22.60
2018-06-05T19:54:45.367Z,22.40
2018-06-05T19:57:13.918Z,22.30
2018-06-05T19:59:42.201Z,22.10
2018-06-05T20:04:39.313Z,21.90
2018-06-05T20:07:07.454Z,21.80
2018-06-05T20:09:35.358Z,21.70
2018-06-05T20:12:03.033Z,21.60
2018-06-05T20:14:30.564Z,21.50
2018-06-05T20:16:58.537Z,21.40
2018-06-05T20:19:27.045Z,21.30
2018-06-05T20:21:55.872Z,21.20
2018-06-05T20:24:23.376Z,21.10
2018-06-05T20:26:51.132Z,21.00
2018-06-05T20:29:19.445Z,20.90
2018-06-05T20:31:46.944Z,20.80
2018-06-05T20:34:14.690Z,20.70
2018-06-05T20:36:42.765Z,20.60
2018-06-05T20:39:11.519Z,20.60
2018-06-05T20:41:39.979Z,20.50
2018-06-05T20:44:08.140Z,20.40
2018-06-05T20:46:35.661Z,20.30
2018-06-05T20:49:03.381Z,20.20
2018-06-05T20:51:30.962Z,20.20
2018-06-05T20:53:58.496Z,20.20
2018-06-05T20:56:26.012Z,20.10
2018-06-05T20:58:53.719Z,20.10
2018-06-05T21:01:21.243Z,20.00
2018-06-05T21:03:49.217Z,20.00
2018-06-05T21:06:16.950Z,20.00
2018-06-05T21:08:44.489Z,19.80
2018-06-05T21:11:11.987Z,19.90
2018-06-05T21:13:39.545Z,19.90
2018-06-05T21:16:07.066Z,19.80
2018-06-05T21:18:34.601Z,19.80
2018-06-05T21:21:02.105Z,19.80
2018-06-05T21:23:29.625Z,19.70
2018-06-05T21:25:57.146Z,19.70
2018-06-05T21:28:24.941Z,19.60
2018-06-05T21:30:52.497Z,19.60
2018-06-05T21:33:20.020Z,19.60
2018-06-05T21:35:47.554Z,19.50
2018-06-05T21:38:15.073Z,19.40
2018-06-05T21:40:42.633Z,19.30
2018-06-05T21:43:10.472Z,19.20
2018-06-05T21:45:37.997Z,19.20
2018-06-05T21:48:05.621Z,19.10
2018-06-05T21:50:33.425Z,19.00
2018-06-05T21:53:01.013Z,19.00
2018-06-05T21:55:28.641Z,18.90
2018-06-05T21:57:56.368Z,18.70
2018-06-05T22:00:24.136Z,18.70
2018-06-05T22:02:51.661Z,18.70
2018-06-05T22:05:19.373Z,18.60
2018-06-05T22:07:46.909Z,18.50
2018-06-05T22:10:14.585Z,18.50
2018-06-05T22:12:42.429Z,18.40
2018-06-05T22:15:10.006Z,18.50
2018-06-05T22:17:37.808Z,18.40
2018-06-05T22:20:05.576Z,18.30
2018-06-05T22:22:33.108Z,18.30
2018-06-05T22:25:00.677Z,18.30
2018-06-05T22:27:30.521Z,18.30
2018-06-05T22:29:58.029Z,18.00
2018-06-05T22:32:25.544Z,18.10
2018-06-05T22:34:53.049Z,18.10
2018-06-05T22:37:20.578Z,18.20
2018-06-05T22:39:48.094Z,18.20
2018-06-05T22:42:15.621Z,18.10
2018-06-05T22:44:43.121Z,18.10
2018-06-05T22:47:10.659Z,18.10
2018-06-05T22:49:38.170Z,18.00
2018-06-05T22:52:05.696Z,18.00
2018-06-05T22:54:33.219Z,17.90
2018-06-05T22:57:00.781Z,17.90
2018-06-05T22:59:28.306Z,17.90
2018-06-05T23:01:55.836Z,17.80
2018-06-05T23:04:23.340Z,17.90
2018-06-05T23:06:50.885Z,17.80
2018-06-05T23:09:18.405Z,17.80
2018-06-05T23:11:45.925Z,17.80
2018-06-05T23:14:13.460Z,17.70
2018-06-05T23:16:41.018Z,17.70
2018-06-05T23:19:08.548Z,17.60
2018-06-05T23:24:03.519Z,17.60
2018-06-05T23:26:31.055Z,17.50
2018-06-05T23:28:58.565Z,17.50
2018-06-05T23:31:26.090Z,17.40
2018-06-05T23:33:53.621Z,17.40
2018-06-05T23:36:21.117Z,17.30
2018-06-05T23:38:48.653Z,17.40
2018-06-05T23:41:16.173Z,17.30
2018-06-05T23:43:43.702Z,17.40
2018-06-05T23:46:11.190Z,17.30
2018-06-05T23:48:38.728Z,17.30
2018-06-05T23:51:06.239Z,17.20
2018-06-05T23:53:33.790Z,17.20
2018-06-05T23:56:01.326Z,17.20
2018-06-05T23:58:28.852Z,17.30
